createdAt,value
2019-01-11T00:00:49.447Z,31.87
2019-01-11T00:03:17.841Z,27.20
2019-01-11T00:05:46.249Z,24.70
2019-01-11T00:08:14.642Z,25.45
2019-01-11T00:10:43.048Z,27.00
2019-01-11T00:13:11.454Z,31.57
2019-01-11T00:15:39.930Z,24.35
2019-01-11T00:18:08.654Z,21.07
2019-01-11T00:20:37.045Z,23.92
2019-01-11T00:23:05.757Z,21.60
2019-01-11T00:25:34.231Z,21.65
2019-01-11T00:28:02.640Z,22.37
2019-01-11T00:30:31.049Z,23.27
2019-01-11T00:32:59.681Z,24.65
2019-01-11T00:35:28.097Z,24.63
2019-01-11T00:37:56.505Z,28.32
2019-01-11T00:40:24.911Z,31.82
2019-01-11T00:42:53.550Z,23.42
2019-01-11T00:45:22.203Z,34.80
2019-01-11T00:47:50.847Z,23.67
2019-01-11T00:50:20.909Z,26.23
2019-01-11T00:52:50.259Z,25.40
2019-01-11T00:55:18.723Z,24.57
2019-01-11T00:57:47.135Z,23.95
2019-01-11T01:00:18.604Z,36.33
2019-01-11T01:02:47.083Z,35.95
2019-01-11T01:05:15.823Z,27.87
2019-01-11T01:07:44.231Z,28.57
2019-01-11T01:10:12.841Z,28.98
2019-01-11T01:12:41.555Z,31.97
2019-01-11T01:15:11.384Z,30.48
2019-01-11T01:17:39.962Z,27.93
2019-01-11T01:20:14.898Z,27.58
2019-01-11T01:22:43.374Z,25.85
2019-01-11T01:25:12.291Z,30.20
2019-01-11T01:27:40.839Z,33.63
2019-01-11T01:30:19.502Z,38.13
2019-01-11T01:32:48.315Z,31.82
2019-01-11T01:35:16.951Z,25.25
2019-01-11T01:37:45.667Z,33.00
2019-01-11T01:40:15.798Z,25.35
2019-01-11T01:42:44.334Z,28.05
2019-01-11T01:45:16.091Z,30.55
2019-01-11T01:47:44.751Z,29.70
2019-01-11T01:50:13.624Z,30.37
2019-01-11T01:52:42.266Z,29.45
2019-01-11T01:55:12.707Z,30.25
2019-01-11T01:57:41.101Z,31.20
2019-01-11T02:00:15.190Z,31.65
2019-01-11T02:02:43.827Z,32.53
2019-01-11T02:05:12.293Z,36.10
2019-01-11T02:07:40.696Z,30.30
2019-01-11T02:10:11.665Z,31.52
2019-01-11T02:12:40.133Z,35.70
2019-01-11T02:15:10.371Z,35.35
2019-01-11T02:17:38.896Z,34.43
2019-01-11T02:20:15.497Z,34.78
2019-01-11T02:22:44.137Z,32.55
2019-01-11T02:25:13.066Z,33.05
2019-01-11T02:27:41.465Z,29.35
2019-01-11T02:30:12.936Z,34.63
2019-01-11T02:32:41.330Z,32.65
2019-01-11T02:35:09.785Z,28.87
2019-01-11T02:37:38.195Z,35.55
2019-01-11T02:40:09.033Z,33.40
2019-01-11T02:42:37.432Z,31.93
2019-01-11T02:45:08.875Z,30.20
2019-01-11T02:47:37.511Z,29.52
2019-01-11T02:50:08.554Z,31.17
2019-01-11T02:52:36.964Z,28.77
2019-01-11T02:55:07.101Z,30.30
2019-01-11T02:57:35.743Z,30.80
2019-01-11T03:00:18.793Z,36.85
2019-01-11T03:02:47.409Z,28.62
2019-01-11T03:05:15.936Z,32.10
2019-01-11T03:07:44.678Z,28.90
2019-01-11T03:10:18.734Z,38.20
2019-01-11T03:12:47.273Z,29.00
2019-01-11T03:15:16.818Z,28.98
2019-01-11T03:17:45.281Z,27.60
2019-01-11T03:20:15.726Z,31.00
2019-01-11T03:22:44.403Z,32.63
2019-01-11T03:25:14.379Z,31.40
2019-01-11T03:27:43.410Z,31.48
2019-01-11T03:30:16.935Z,32.20
2019-01-11T03:32:45.409Z,30.25
2019-01-11T03:35:15.499Z,28.60
2019-01-11T03:37:44.937Z,31.20
2019-01-11T03:40:15.979Z,28.73
2019-01-11T03:42:44.445Z,30.45
2019-01-11T03:45:15.394Z,29.23
2019-01-11T03:47:44.096Z,33.60
2019-01-11T03:50:15.278Z,30.00
2019-01-11T03:52:43.676Z,30.35
2019-01-11T03:55:13.696Z,28.10
2019-01-11T03:57:42.321Z,27.95
2019-01-11T04:00:16.658Z,22.65
2019-01-11T04:02:45.062Z,25.75
2019-01-11T04:05:13.903Z,28.52
2019-01-11T04:07:42.361Z,31.90
2019-01-11T04:10:14.210Z,28.98
2019-01-11T04:12:42.606Z,26.07
2019-01-11T04:15:13.552Z,25.72
2019-01-11T04:17:42.254Z,27.50
2019-01-11T04:20:16.579Z,25.72
2019-01-11T04:22:46.643Z,29.42
2019-01-11T04:25:19.173Z,27.65
2019-01-11T04:27:47.706Z,24.52
2019-01-11T04:30:16.951Z,27.10
2019-01-11T04:32:45.413Z,25.70
2019-01-11T04:35:14.114Z,25.15
2019-01-11T04:37:42.585Z,26.40
2019-01-11T04:40:12.323Z,37.50
2019-01-11T04:42:40.786Z,26.20
2019-01-11T04:45:10.026Z,22.95
2019-01-11T04:47:38.422Z,23.98
2019-01-11T04:50:10.097Z,27.95
2019-01-11T04:52:38.549Z,28.90
2019-01-11T04:55:07.427Z,20.35
2019-01-11T04:57:36.118Z,22.52
2019-01-11T05:00:07.613Z,26.02
2019-01-11T05:02:36.003Z,21.02
2019-01-11T05:05:06.049Z,28.87
2019-01-11T05:07:34.456Z,27.65
2019-01-11T05:10:04.215Z,22.55
2019-01-11T05:12:32.630Z,24.25
2019-01-11T05:15:01.033Z,24.63
2019-01-11T05:17:29.458Z,20.82
2019-01-11T05:19:58.088Z,20.52
2019-01-11T05:22:26.542Z,22.45
2019-01-11T05:24:54.946Z,27.30
2019-01-11T05:27:23.334Z,28.05
2019-01-11T05:29:51.980Z,23.92
2019-01-11T05:32:20.380Z,22.65
2019-01-11T05:34:48.771Z,25.27
2019-01-11T05:37:17.245Z,22.07
2019-01-11T05:39:45.632Z,21.45
2019-01-11T05:42:14.035Z,18.37
2019-01-11T05:44:42.751Z,21.62
2019-01-11T05:47:11.149Z,18.48
2019-01-11T05:49:39.994Z,23.18
2019-01-11T05:52:08.401Z,23.83
2019-01-11T05:54:36.802Z,19.42
2019-01-11T05:57:05.203Z,18.65
2019-01-11T05:59:33.598Z,17.82
2019-01-11T06:02:02.002Z,19.65
2019-01-11T06:04:32.038Z,21.60
2019-01-11T06:07:17.170Z,20.88
2019-01-11T06:09:45.590Z,15.85
2019-01-11T06:12:14.042Z,18.07
2019-01-11T06:14:42.437Z,19.40
2019-01-11T06:17:10.841Z,15.83
2019-01-11T06:19:39.233Z,18.27
2019-01-11T06:22:07.647Z,16.15
2019-01-11T06:24:36.063Z,17.45
2019-01-11T06:27:04.609Z,14.78
2019-01-11T06:29:32.997Z,15.25
2019-01-11T06:32:01.394Z,12.95
2019-01-11T06:34:29.795Z,21.10
2019-01-11T06:36:58.187Z,12.70
2019-01-11T06:39:26.650Z,15.72
2019-01-11T06:41:56.689Z,17.90
2019-01-11T06:44:25.097Z,12.30
2019-01-11T06:46:53.486Z,14.03
2019-01-11T06:49:22.122Z,12.65
2019-01-11T06:51:50.529Z,16.67
2019-01-11T06:54:19.154Z,13.38
2019-01-11T06:56:47.561Z,14.15
2019-01-11T06:59:15.965Z,12.82
2019-01-11T07:01:44.359Z,12.37
2019-01-11T07:04:12.989Z,12.58
2019-01-11T07:06:41.627Z,11.08
2019-01-11T07:09:10.326Z,15.90
2019-01-11T07:11:38.726Z,16.35
2019-01-11T07:14:07.129Z,13.53
2019-01-11T07:16:35.535Z,11.12
2019-01-11T07:19:04.010Z,18.95
2019-01-11T07:21:32.407Z,15.70
2019-01-11T07:24:00.805Z,18.95
2019-01-11T07:26:29.276Z,21.90
2019-01-11T07:28:57.680Z,15.72
2019-01-11T07:31:26.469Z,19.15
2019-01-11T07:33:54.854Z,19.85
2019-01-11T07:36:24.894Z,22.07
2019-01-11T07:38:53.324Z,21.23
2019-01-11T07:41:21.713Z,19.23
2019-01-11T07:43:50.102Z,22.73
2019-01-11T07:46:18.825Z,18.98
2019-01-11T07:48:47.225Z,19.05
2019-01-11T07:51:15.879Z,20.00
2019-01-11T07:53:44.267Z,20.82
2019-01-11T07:56:12.734Z,17.45
2019-01-11T07:58:41.126Z,16.02
2019-01-11T08:01:09.528Z,20.32
2019-01-11T08:03:37.925Z,17.35
2019-01-11T08:06:06.321Z,18.77
2019-01-11T08:08:34.711Z,17.52
2019-01-11T08:11:03.182Z,18.77
2019-01-11T08:13:31.638Z,19.02
2019-01-11T08:16:00.274Z,21.35
2019-01-11T08:18:28.665Z,17.23
2019-01-11T08:20:57.078Z,19.45
2019-01-11T08:23:25.457Z,20.27
2019-01-11T08:25:53.863Z,21.70
2019-01-11T08:28:23.434Z,18.15
2019-01-11T08:30:51.903Z,20.35
2019-01-11T08:33:20.295Z,22.95
2019-01-11T08:35:48.693Z,20.95
2019-01-11T08:38:17.344Z,22.13
2019-01-11T08:40:45.742Z,18.60
2019-01-11T08:43:14.379Z,15.50
2019-01-11T08:45:43.019Z,17.10
2019-01-11T08:48:13.182Z,16.57
2019-01-11T08:50:41.582Z,18.90
2019-01-11T08:53:09.986Z,18.25
2019-01-11T08:55:38.618Z,17.50
2019-01-11T08:58:07.021Z,16.95
2019-01-11T09:00:35.433Z,17.12
2019-01-11T09:03:03.898Z,14.73
2019-01-11T09:05:32.318Z,14.75
2019-01-11T09:08:00.724Z,16.35
2019-01-11T09:10:29.257Z,14.90
2019-01-11T09:12:57.658Z,17.40
2019-01-11T09:15:26.050Z,15.93
2019-01-11T09:17:59.041Z,18.65
2019-01-11T09:20:27.437Z,16.77
2019-01-11T09:22:55.843Z,14.58
2019-01-11T09:25:24.233Z,18.40
2019-01-11T09:27:52.643Z,16.35
2019-01-11T09:30:21.038Z,19.05
2019-01-11T09:32:49.450Z,23.50
2019-01-11T09:35:18.086Z,18.25
2019-01-11T09:37:47.329Z,20.52
2019-01-11T09:40:16.965Z,13.80
2019-01-11T09:42:45.370Z,16.52
2019-01-11T09:45:14.075Z,24.12
2019-01-11T09:47:42.713Z,20.65
2019-01-11T09:50:11.179Z,19.60
2019-01-11T09:52:39.837Z,16.00
2019-01-11T09:55:09.110Z,19.32
2019-01-11T09:57:37.523Z,15.53
2019-01-11T10:00:20.789Z,19.70
2019-01-11T10:02:51.071Z,16.20
2019-01-11T10:05:19.636Z,16.90
2019-01-11T10:07:48.042Z,18.67
2019-01-11T10:10:16.432Z,20.65
2019-01-11T10:12:44.846Z,19.77
2019-01-11T10:15:14.977Z,25.70
2019-01-11T10:17:43.392Z,24.05
2019-01-11T10:20:14.502Z,24.55
2019-01-11T10:22:42.982Z,21.45
2019-01-11T10:25:11.714Z,28.35
2019-01-11T10:27:40.380Z,19.65
2019-01-11T10:30:11.878Z,19.07
2019-01-11T10:32:40.271Z,16.07
2019-01-11T10:35:10.122Z,17.12
2019-01-11T10:37:38.509Z,22.87
2019-01-11T10:40:09.959Z,21.73
2019-01-11T10:42:39.636Z,21.80
2019-01-11T10:45:11.613Z,21.17
2019-01-11T10:47:40.253Z,17.77
2019-01-11T10:50:14.423Z,17.57
2019-01-11T10:52:42.897Z,19.40
2019-01-11T10:55:13.681Z,20.25
2019-01-11T10:57:42.205Z,17.70
2019-01-11T11:00:13.690Z,17.27
2019-01-11T11:02:42.150Z,20.72
2019-01-11T11:05:10.685Z,19.57
2019-01-11T11:07:39.381Z,22.17
2019-01-11T11:10:10.216Z,21.10
2019-01-11T11:12:38.616Z,19.65
2019-01-11T11:15:09.970Z,20.62
2019-01-11T11:17:38.373Z,85.07
2019-01-11T11:20:09.915Z,22.93
2019-01-11T11:22:38.318Z,18.37
2019-01-11T11:25:10.022Z,29.67
2019-01-11T11:27:38.420Z,21.20
2019-01-11T11:30:09.961Z,21.35
2019-01-11T11:32:58.231Z,20.20
2019-01-11T11:35:27.051Z,21.45
2019-01-11T11:37:55.532Z,155.97
2019-01-11T11:40:24.287Z,32.55
2019-01-11T11:42:52.684Z,23.27
2019-01-11T11:45:21.159Z,26.60
2019-01-11T11:47:49.549Z,24.27
2019-01-11T11:50:17.953Z,22.30
2019-01-11T11:52:46.362Z,22.42
2019-01-11T11:55:14.841Z,19.85
2019-01-11T11:57:43.247Z,23.85
2019-01-11T12:00:22.775Z,19.73
2019-01-11T12:02:51.229Z,24.27
2019-01-11T12:05:19.638Z,18.73
2019-01-11T12:07:48.369Z,21.57
2019-01-11T12:10:16.933Z,18.65
2019-01-11T12:12:45.338Z,20.05
2019-01-11T12:15:15.485Z,17.55
2019-01-11T12:17:43.896Z,28.65
2019-01-11T12:20:18.026Z,19.30
2019-01-11T12:22:46.437Z,20.52
2019-01-11T12:25:14.837Z,16.15
2019-01-11T12:27:46.214Z,19.73
2019-01-11T12:30:16.459Z,20.55
2019-01-11T12:32:44.868Z,19.00
2019-01-11T12:35:13.345Z,15.75
2019-01-11T12:37:41.985Z,17.20
2019-01-11T12:40:12.755Z,19.05
2019-01-11T12:42:41.385Z,18.55
2019-01-11T12:45:12.442Z,18.23
2019-01-11T12:47:40.846Z,21.00
2019-01-11T12:50:12.695Z,26.35
2019-01-11T12:52:41.104Z,22.48
2019-01-11T12:55:09.642Z,21.65
2019-01-11T12:57:38.106Z,22.67
2019-01-11T13:00:10.102Z,25.57
2019-01-11T13:02:38.512Z,29.87
2019-01-11T13:05:09.252Z,35.75
2019-01-11T13:07:37.654Z,29.12
2019-01-11T13:10:08.965Z,32.13
2019-01-11T13:12:37.366Z,42.80
2019-01-11T13:15:09.420Z,36.50
2019-01-11T13:17:38.069Z,40.80
2019-01-11T13:20:09.874Z,47.53
2019-01-11T13:22:38.349Z,43.25
2019-01-11T13:25:08.261Z,50.30
2019-01-11T13:27:36.657Z,59.90
2019-01-11T13:30:08.791Z,58.52
2019-01-11T13:32:37.200Z,39.18
2019-01-11T13:35:07.398Z,65.60
2019-01-11T13:37:35.808Z,56.05
2019-01-11T13:40:13.335Z,48.95
2019-01-11T13:42:41.741Z,42.20
2019-01-11T13:45:10.274Z,57.30
2019-01-11T13:47:38.683Z,45.67
2019-01-11T13:50:13.165Z,83.65
2019-01-11T13:52:41.814Z,65.08
2019-01-11T13:55:10.455Z,55.30
2019-01-11T13:57:38.854Z,51.65
2019-01-11T14:00:16.050Z,67.70
2019-01-11T14:02:44.706Z,50.38
2019-01-11T14:05:13.110Z,51.65
2019-01-11T14:07:41.585Z,53.58
2019-01-11T14:10:10.050Z,49.88
2019-01-11T14:12:38.449Z,41.85
2019-01-11T14:15:09.483Z,40.52
2019-01-11T14:17:37.923Z,46.60
2019-01-11T14:20:09.526Z,45.28
2019-01-11T14:22:37.997Z,37.70
2019-01-11T14:25:08.641Z,38.80
2019-01-11T14:27:37.119Z,43.42
2019-01-11T14:30:08.834Z,44.03
2019-01-11T14:32:37.476Z,41.20
2019-01-11T14:35:07.720Z,39.53
2019-01-11T14:37:36.112Z,38.53
2019-01-11T14:40:07.922Z,33.95
2019-01-11T14:42:36.315Z,28.32
2019-01-11T14:45:07.960Z,32.08
2019-01-11T14:47:36.362Z,25.17
2019-01-11T14:50:10.461Z,25.95
2019-01-11T14:52:38.860Z,28.57
2019-01-11T14:55:07.411Z,26.23
2019-01-11T14:57:36.049Z,29.07
2019-01-11T15:00:07.607Z,23.67
2019-01-11T15:02:36.249Z,25.77
2019-01-11T15:05:06.941Z,26.12
2019-01-11T15:07:35.346Z,26.12
2019-01-11T15:10:05.558Z,23.83
2019-01-11T15:12:33.954Z,26.95
2019-01-11T15:15:02.414Z,23.92
2019-01-11T15:17:31.049Z,26.82
2019-01-11T15:19:59.687Z,29.05
2019-01-11T15:22:28.080Z,29.92
2019-01-11T15:24:56.481Z,30.20
2019-01-11T15:27:24.878Z,32.38
2019-01-11T15:29:53.270Z,32.53
2019-01-11T15:32:21.669Z,31.07
2019-01-11T15:34:50.079Z,30.60
2019-01-11T15:37:18.461Z,34.33
2019-01-11T15:39:46.888Z,33.08
2019-01-11T15:42:15.290Z,35.13
2019-01-11T15:44:43.701Z,28.87
2019-01-11T15:47:12.158Z,34.55
2019-01-11T15:49:40.569Z,40.12
2019-01-11T15:52:08.993Z,38.75
2019-01-11T15:54:37.630Z,44.63
2019-01-11T15:57:06.041Z,50.95
2019-01-11T15:59:37.515Z,48.92
2019-01-11T16:02:05.910Z,56.53
2019-01-11T16:04:40.370Z,51.58
2019-01-11T16:07:09.013Z,62.45
2019-01-11T16:09:55.397Z,58.78
2019-01-11T16:12:25.147Z,52.35
2019-01-11T16:15:02.366Z,58.78
2019-01-11T16:17:32.549Z,60.05
2019-01-11T16:20:01.193Z,56.88
2019-01-11T16:22:29.629Z,66.20
2019-01-11T16:24:58.054Z,49.00
2019-01-11T16:27:27.033Z,64.50
2019-01-11T16:29:55.430Z,62.90
2019-01-11T16:32:23.837Z,61.18
2019-01-11T16:34:52.241Z,58.17
2019-01-11T16:37:20.635Z,51.40
2019-01-11T16:39:49.267Z,49.38
2019-01-11T16:42:17.679Z,47.33
2019-01-11T16:44:46.299Z,45.05
2019-01-11T16:47:14.722Z,50.65
2019-01-11T16:49:43.173Z,43.52
2019-01-11T16:52:15.330Z,49.38
2019-01-11T16:54:41.766Z,42.67
2019-01-11T16:57:10.142Z,48.63
2019-01-11T16:59:38.549Z,44.10
2019-01-11T17:02:06.943Z,49.65
2019-01-11T17:04:35.339Z,49.95
2019-01-11T17:07:03.819Z,53.20
2019-01-11T17:09:32.235Z,50.30
2019-01-11T17:12:00.683Z,52.23
2019-01-11T17:14:29.090Z,55.25
2019-01-11T17:16:57.722Z,59.25
2019-01-11T17:19:27.702Z,69.30
2019-01-11T17:21:56.091Z,64.47
2019-01-11T17:24:24.507Z,69.12
2019-01-11T17:26:52.899Z,60.45
2019-01-11T17:29:21.322Z,66.28
2019-01-11T17:31:49.726Z,65.10
2019-01-11T17:34:18.365Z,62.55
2019-01-11T17:36:46.770Z,66.70
2019-01-11T17:39:15.192Z,65.47
2019-01-11T17:41:43.881Z,55.10
2019-01-11T17:44:12.515Z,47.45
2019-01-11T17:46:41.168Z,57.10
2019-01-11T17:49:09.814Z,55.38
2019-01-11T17:51:38.445Z,55.15
2019-01-11T17:54:06.870Z,56.48
2019-01-11T17:56:35.262Z,52.62
2019-01-11T17:59:03.741Z,52.58
2019-01-11T18:01:32.140Z,43.55
2019-01-11T18:04:00.549Z,55.70
2019-01-11T18:06:28.942Z,52.27
2019-01-11T18:08:57.347Z,50.43
2019-01-11T18:11:25.750Z,52.33
2019-01-11T18:13:54.151Z,49.85
2019-01-11T18:16:22.591Z,53.23
2019-01-11T18:18:50.994Z,55.85
2019-01-11T18:21:19.626Z,48.90
2019-01-11T18:23:48.038Z,46.60
2019-01-11T18:26:16.427Z,46.77
2019-01-11T18:28:44.826Z,47.70
2019-01-11T18:31:13.275Z,44.77
2019-01-11T18:33:41.677Z,39.58
2019-01-11T18:36:10.074Z,36.80
2019-01-11T18:38:38.542Z,35.28
2019-01-11T18:41:06.951Z,33.55
2019-01-11T18:43:35.342Z,31.27
2019-01-11T18:46:04.051Z,33.53
2019-01-11T18:48:32.448Z,28.12
2019-01-11T18:51:02.820Z,27.93
2019-01-11T18:53:31.490Z,22.52
2019-01-11T18:56:13.861Z,27.62
2019-01-11T18:58:42.264Z,25.65
2019-01-11T19:01:10.662Z,27.77
2019-01-11T19:03:39.073Z,30.15
2019-01-11T19:06:07.470Z,27.95
2019-01-11T19:08:36.114Z,26.65
2019-01-11T19:11:04.586Z,27.73
2019-01-11T19:13:32.980Z,25.95
2019-01-11T19:16:01.392Z,25.72
2019-01-11T19:18:30.032Z,27.42
2019-01-11T19:20:58.433Z,26.45
2019-01-11T19:23:28.785Z,25.43
2019-01-11T19:25:57.190Z,23.70
2019-01-11T19:28:25.590Z,22.35
2019-01-11T19:30:54.068Z,23.38
2019-01-11T19:33:22.471Z,23.98
2019-01-11T19:35:50.941Z,22.98
2019-01-11T19:38:19.355Z,26.00
2019-01-11T19:40:48.008Z,25.15
2019-01-11T19:43:16.398Z,24.37
2019-01-11T19:45:44.880Z,25.70
2019-01-11T19:48:13.316Z,22.60
2019-01-11T19:50:41.709Z,22.13
2019-01-11T19:53:10.120Z,26.73
2019-01-11T19:55:44.505Z,24.72
2019-01-11T19:58:12.901Z,25.62
2019-01-11T20:00:41.325Z,24.98
2019-01-11T20:03:09.706Z,28.67
2019-01-11T20:05:38.100Z,24.60
2019-01-11T20:08:07.109Z,22.07
2019-01-11T20:10:35.808Z,24.43
2019-01-11T20:13:04.486Z,28.35
2019-01-11T20:15:33.263Z,21.73
2019-01-11T20:18:01.751Z,25.97
2019-01-11T20:20:30.197Z,27.70
2019-01-11T20:23:02.449Z,26.10
2019-01-11T20:25:28.786Z,29.52
2019-01-11T20:27:57.183Z,35.52
2019-01-11T20:30:26.427Z,28.17
2019-01-11T20:32:54.825Z,31.50
2019-01-11T20:35:23.642Z,29.25
2019-01-11T20:37:52.117Z,26.37
2019-01-11T20:40:20.522Z,27.32
2019-01-11T20:42:49.290Z,26.40
2019-01-11T20:45:19.575Z,27.00
2019-01-11T20:47:48.215Z,25.62
2019-01-11T20:50:18.770Z,28.12
2019-01-11T20:52:47.249Z,31.93
2019-01-11T20:55:16.082Z,25.37
2019-01-11T20:57:45.012Z,34.23
2019-01-11T21:00:16.835Z,32.28
2019-01-11T21:02:45.227Z,33.28
2019-01-11T21:05:16.407Z,27.65
2019-01-11T21:07:44.849Z,29.02
2019-01-11T21:10:14.734Z,30.05
2019-01-11T21:12:43.204Z,32.50
2019-01-11T21:15:14.855Z,32.33
2019-01-11T21:17:43.382Z,29.27
2019-01-11T21:20:14.446Z,21.75
2019-01-11T21:22:43.281Z,24.25
2019-01-11T21:25:19.302Z,27.65
2019-01-11T21:27:47.847Z,23.40
2019-01-11T21:30:26.753Z,25.92
2019-01-11T21:32:55.259Z,26.50
2019-01-11T21:35:24.150Z,26.30
2019-01-11T21:37:52.600Z,23.15
2019-01-11T21:40:21.803Z,20.72
2019-01-11T21:42:50.733Z,22.13
2019-01-11T21:45:20.938Z,24.70
2019-01-11T21:47:49.398Z,24.90
2019-01-11T21:50:22.524Z,27.32
2019-01-11T21:52:51.487Z,25.95
2019-01-11T21:55:22.037Z,26.30
2019-01-11T21:57:50.458Z,27.73
2019-01-11T22:00:27.861Z,25.55
2019-01-11T22:02:56.438Z,28.02
2019-01-11T22:05:24.921Z,27.75
2019-01-11T22:07:53.324Z,21.52
2019-01-11T22:10:21.738Z,23.70
2019-01-11T22:12:50.138Z,21.55
2019-01-11T22:15:19.483Z,22.70
2019-01-11T22:17:48.263Z,19.48
2019-01-11T22:20:17.954Z,19.75
2019-01-11T22:22:46.637Z,19.75
2019-01-11T22:25:17.477Z,18.73
2019-01-11T22:27:45.873Z,22.00
2019-01-11T22:30:16.654Z,18.62
2019-01-11T22:32:45.085Z,17.12
2019-01-11T22:35:14.034Z,14.07
2019-01-11T22:37:42.536Z,13.38
2019-01-11T22:40:14.049Z,16.42
2019-01-11T22:42:42.449Z,17.27
2019-01-11T22:45:13.196Z,17.23
2019-01-11T22:47:41.666Z,19.82
2019-01-11T22:50:12.611Z,26.62
2019-01-11T22:52:41.318Z,28.10
2019-01-11T22:55:11.962Z,24.27
2019-01-11T22:57:40.831Z,21.60
2019-01-11T23:00:12.667Z,17.87
2019-01-11T23:02:41.390Z,16.62
2019-01-11T23:05:10.150Z,29.90
2019-01-11T23:07:38.899Z,18.85
2019-01-11T23:10:12.923Z,20.30
2019-01-11T23:12:43.789Z,23.10
2019-01-11T23:15:15.273Z,27.15
2019-01-11T23:17:47.367Z,26.42
2019-01-11T23:20:15.777Z,23.90
2019-01-11T23:22:44.177Z,29.65
2019-01-11T23:25:12.638Z,30.85
2019-01-11T23:27:41.362Z,30.15
2019-01-11T23:30:13.084Z,30.72
2019-01-11T23:32:41.502Z,28.30
2019-01-11T23:35:10.037Z,30.62
2019-01-11T23:37:38.450Z,29.87
2019-01-11T23:40:09.782Z,26.20
2019-01-11T23:42:38.261Z,28.35
2019-01-11T23:45:09.705Z,24.05
2019-01-11T23:47:38.374Z,25.97
2019-01-11T23:50:12.315Z,33.45
2019-01-11T23:52:40.721Z,25.82
2019-01-11T23:55:10.550Z,24.85
2019-01-11T23:57:38.989Z,22.13
